createdAt,value
2018-07-11T00:58:33.729Z,14.20
2018-07-11T01:01:16.155Z,14.20
2018-07-11T01:03:49.482Z,14.20
2018-07-11T01:06:20.095Z,14.30
2018-07-11T01:08:53.232Z,14.30
2018-07-11T01:11:24.388Z,14.30
2018-07-11T01:13:53.322Z,14.30
2018-07-11T01:16:23.286Z,14.30
2018-07-11T01:19:00.773Z,14.40
2018-07-11T01:21:29.995Z,14.40
2018-07-11T01:23:58.664Z,14.40
2018-07-11T01:26:38.160Z,14.40
2018-07-11T01:29:07.070Z,14.40
2018-07-11T01:31:35.895Z,14.40
2018-07-11T01:34:05.449Z,14.40
2018-07-11T01:36:34.909Z,14.40
2018-07-11T01:39:04.872Z,14.50
2018-07-11T01:41:33.711Z,14.50
2018-07-11T01:44:02.169Z,14.50
2018-07-11T01:46:50.030Z,14.50
2018-07-11T01:49:19.357Z,14.50
2018-07-11T01:51:59.344Z,14.50
2018-07-11T01:54:29.280Z,14.50
2018-07-11T01:59:28.879Z,14.50
2018-07-11T02:01:58.295Z,14.50
2018-07-11T02:04:27.420Z,14.50
2018-07-11T02:06:56.196Z,14.50
2018-07-11T02:11:53.312Z,14.30
2018-07-11T02:14:21.818Z,14.30
2018-07-11T02:16:51.579Z,14.30
2018-07-11T02:19:21.431Z,14.20
2018-07-11T02:21:50.737Z,14.20
2018-07-11T02:24:20.975Z,14.20
2018-07-11T02:26:49.639Z,14.10
2018-07-11T02:29:18.067Z,14.20
2018-07-11T02:31:46.555Z,14.20
2018-07-11T02:34:16.369Z,14.20
2018-07-11T02:36:45.049Z,14.20
2018-07-11T02:39:13.978Z,14.20
2018-07-11T02:41:42.771Z,14.20
2018-07-11T02:44:11.218Z,14.20
2018-07-11T02:46:46.140Z,14.20
2018-07-11T02:49:15.042Z,14.10
2018-07-11T02:51:44.019Z,14.10
2018-07-11T02:54:12.543Z,14.10
2018-07-11T02:56:41.220Z,14.10
2018-07-11T02:59:09.623Z,14.10
2018-07-11T03:01:38.572Z,14.00
2018-07-11T03:04:07.213Z,14.00
2018-07-11T03:06:36.160Z,14.00
2018-07-11T03:09:05.242Z,14.00
2018-07-11T03:11:33.676Z,14.00
2018-07-11T03:14:02.411Z,14.00
2018-07-11T03:16:31.543Z,14.00
2018-07-11T03:19:00.903Z,13.90
2018-07-11T03:21:30.461Z,13.90
2018-07-11T03:23:59.812Z,13.90
2018-07-11T03:26:28.500Z,13.80
2018-07-11T03:28:56.980Z,13.70
2018-07-11T03:31:26.140Z,13.80
2018-07-11T03:33:54.551Z,13.70
2018-07-11T03:36:23.037Z,13.80
2018-07-11T03:38:51.684Z,13.80
2018-07-11T03:41:20.414Z,13.80
2018-07-11T03:43:48.831Z,13.80
2018-07-11T03:46:17.305Z,13.90
2018-07-11T03:48:46.309Z,13.90
2018-07-11T03:51:15.516Z,13.90
2018-07-11T03:53:44.110Z,13.90
2018-07-11T03:56:12.500Z,14.00
2018-07-11T03:58:41.493Z,14.00
2018-07-11T04:03:38.511Z,14.00
2018-07-11T04:06:06.966Z,14.00
2018-07-11T04:08:36.022Z,14.00
2018-07-11T04:11:04.763Z,14.00
2018-07-11T04:13:33.205Z,14.00
2018-07-11T04:16:03.078Z,14.00
2018-07-11T04:18:32.072Z,14.00
2018-07-11T04:21:01.724Z,14.00
2018-07-11T04:23:30.372Z,14.10
2018-07-11T04:25:58.945Z,14.00
2018-07-11T04:28:28.766Z,14.00
2018-07-11T04:30:59.031Z,14.00
2018-07-11T04:33:27.526Z,14.10
2018-07-11T04:35:57.346Z,14.20
2018-07-11T04:38:26.726Z,14.20
2018-07-11T04:40:55.219Z,14.30
2018-07-11T04:43:26.476Z,14.30
2018-07-11T04:45:55.341Z,14.30
2018-07-11T04:48:23.949Z,14.30
2018-07-11T04:50:53.216Z,14.30
2018-07-11T04:53:27.957Z,14.40
2018-07-11T04:56:01.364Z,14.40
2018-07-11T04:58:31.299Z,14.50
2018-07-11T05:01:00.424Z,14.70
2018-07-11T05:03:29.629Z,14.90
2018-07-11T05:08:27.053Z,15.20
2018-07-11T05:10:55.702Z,15.30
2018-07-11T05:13:24.896Z,15.30
2018-07-11T05:15:53.333Z,15.40
2018-07-11T05:18:22.550Z,15.40
2018-07-11T05:20:51.258Z,15.60
2018-07-11T05:23:19.832Z,15.70
2018-07-11T05:25:48.260Z,15.80
2018-07-11T05:28:17.259Z,15.90
2018-07-11T05:30:45.877Z,15.90
2018-07-11T05:33:14.816Z,16.00
2018-07-11T05:35:43.697Z,16.00
2018-07-11T05:38:12.141Z,16.00
2018-07-11T05:40:41.108Z,15.90
2018-07-11T05:43:10.439Z,15.80
2018-07-11T05:45:39.140Z,15.80
2018-07-11T05:48:08.065Z,15.80
2018-07-11T05:50:36.687Z,15.80
2018-07-11T05:53:05.187Z,15.70
2018-07-11T05:55:34.140Z,15.70
2018-07-11T05:58:03.304Z,15.90
2018-07-11T06:00:31.936Z,16.70
2018-07-11T06:03:00.936Z,17.20
2018-07-11T06:05:32.963Z,17.30
2018-07-11T06:08:03.152Z,17.20
2018-07-11T06:10:31.623Z,17.10
2018-07-11T06:13:00.055Z,17.40
2018-07-11T06:15:29.313Z,18.30
2018-07-11T06:17:57.929Z,19.30
2018-07-11T06:20:26.644Z,20.00
2018-07-11T06:22:55.278Z,20.40
2018-07-11T06:25:24.352Z,21.10
2018-07-11T06:27:53.387Z,22.30
2018-07-11T06:30:22.000Z,22.80
2018-07-11T06:32:50.667Z,22.10
2018-07-11T06:35:19.342Z,21.30
2018-07-11T06:37:48.228Z,20.10
2018-07-11T06:40:16.629Z,19.60
2018-07-11T06:42:45.360Z,19.60
2018-07-11T06:45:15.580Z,19.40
2018-07-11T06:47:44.117Z,19.10
2018-07-11T06:50:12.596Z,18.90
2018-07-11T06:52:41.194Z,20.00
2018-07-11T06:55:10.040Z,21.40
2018-07-11T06:57:38.508Z,22.50
2018-07-11T07:00:07.067Z,23.30
2018-07-11T07:02:35.511Z,23.80
2018-07-11T07:05:04.365Z,23.80
2018-07-11T07:07:33.540Z,23.60
2018-07-11T07:10:02.654Z,23.70
2018-07-11T07:12:32.078Z,23.80
2018-07-11T07:15:01.057Z,24.20
2018-07-11T07:17:29.853Z,24.40
2018-07-11T07:19:59.249Z,24.80
2018-07-11T07:22:29.185Z,25.10
2018-07-11T07:24:57.595Z,25.50
2018-07-11T07:27:26.578Z,25.20
2018-07-11T07:29:55.501Z,24.80
2018-07-11T07:32:23.921Z,25.10
2018-07-11T07:34:52.876Z,24.30
2018-07-11T07:37:21.801Z,24.70
2018-07-11T07:39:50.285Z,25.10
2018-07-11T07:42:19.148Z,25.70
2018-07-11T07:44:48.365Z,25.70
2018-07-11T07:47:22.106Z,26.00
2018-07-11T07:49:51.673Z,25.40
2018-07-11T07:52:20.577Z,25.40
2018-07-11T07:54:49.687Z,24.30
2018-07-11T07:57:18.297Z,23.60
2018-07-11T07:59:47.349Z,23.00
2018-07-11T08:02:16.377Z,23.40
2018-07-11T08:04:46.228Z,24.30
2018-07-11T08:07:15.529Z,25.30
2018-07-11T08:09:44.174Z,25.40
2018-07-11T08:12:12.847Z,24.60
2018-07-11T08:14:41.996Z,23.20
2018-07-11T08:17:11.104Z,21.80
2018-07-11T08:19:40.608Z,20.70
2018-07-11T08:22:20.733Z,20.10
2018-07-11T08:25:01.106Z,20.50
2018-07-11T08:30:17.220Z,22.10
2018-07-11T08:32:56.495Z,23.30
2018-07-11T08:35:54.177Z,24.50
2018-07-11T08:38:34.281Z,24.70
2018-07-11T08:41:15.301Z,25.20
2018-07-11T08:44:44.564Z,26.60
2018-07-11T08:47:27.255Z,27.50
2018-07-11T08:52:14.338Z,26.20
2018-07-11T08:56:57.909Z,25.70
2018-07-11T08:59:37.484Z,26.10
2018-07-11T09:02:18.952Z,25.00
2018-07-11T09:07:05.166Z,24.20
2018-07-11T09:11:51.221Z,23.90
2018-07-11T09:14:29.076Z,22.70
2018-07-11T09:19:12.415Z,21.60
2018-07-11T09:23:58.216Z,20.90
2018-07-11T09:26:28.594Z,20.20
2018-07-11T09:28:57.119Z,19.70
2018-07-11T09:31:26.561Z,19.30
2018-07-11T09:33:55.446Z,19.00
2018-07-11T09:36:24.072Z,18.70
2018-07-11T09:38:53.870Z,19.10
2018-07-11T09:41:22.602Z,19.80
2018-07-11T09:43:51.435Z,20.10
2018-07-11T09:49:13.771Z,19.70
2018-07-11T09:51:42.659Z,19.70
2018-07-11T09:54:11.519Z,19.90
2018-07-11T09:56:40.497Z,21.20
2018-07-11T09:59:09.136Z,22.90
2018-07-11T10:01:40.457Z,24.80
2018-07-11T10:04:09.200Z,26.00
2018-07-11T10:06:37.921Z,25.70
2018-07-11T10:09:06.388Z,25.70
2018-07-11T10:11:34.976Z,25.10
2018-07-11T10:16:34.173Z,23.10
2018-07-11T10:19:03.798Z,22.20
2018-07-11T10:21:33.521Z,21.30
2018-07-11T10:24:03.265Z,20.80
2018-07-11T10:26:32.759Z,20.30
2018-07-11T10:29:01.590Z,19.90
2018-07-11T10:31:30.955Z,19.60
2018-07-11T10:33:59.727Z,19.40
2018-07-11T10:36:28.448Z,19.30
2018-07-11T10:38:58.318Z,19.50
2018-07-11T10:41:27.835Z,19.70
2018-07-11T10:43:56.475Z,20.50
2018-07-11T10:46:25.083Z,21.90
2018-07-11T10:48:54.427Z,22.50
2018-07-11T10:51:23.177Z,23.50
2018-07-11T10:53:52.326Z,23.50
2018-07-11T10:56:20.725Z,22.90
2018-07-11T10:58:49.174Z,22.40
2018-07-11T11:01:18.362Z,21.90
2018-07-11T11:03:47.240Z,21.00
2018-07-11T11:06:16.120Z,20.30
2018-07-11T11:08:45.454Z,19.80
2018-07-11T11:11:14.152Z,19.30
2018-07-11T11:13:42.610Z,19.00
2018-07-11T11:16:12.126Z,18.60
2018-07-11T11:18:40.522Z,18.30
2018-07-11T11:21:09.198Z,18.20
2018-07-11T11:23:38.889Z,18.00
2018-07-11T11:26:07.886Z,17.90
2018-07-11T11:28:36.336Z,17.70
2018-07-11T11:31:05.255Z,17.60
2018-07-11T11:33:34.741Z,17.50
2018-07-11T11:36:03.667Z,17.40
2018-07-11T11:38:32.571Z,17.30
2018-07-11T11:41:01.518Z,17.30
2018-07-11T11:43:30.092Z,17.30
2018-07-11T11:45:58.480Z,17.40
2018-07-11T11:48:27.255Z,17.50
2018-07-11T11:50:55.940Z,17.80
2018-07-11T11:53:24.439Z,18.00
2018-07-11T11:58:25.105Z,18.90
2018-07-11T12:00:53.654Z,18.80
2018-07-11T12:03:23.075Z,18.90
2018-07-11T12:05:51.555Z,18.80
2018-07-11T12:08:23.298Z,18.90
2018-07-11T12:10:52.077Z,18.90
2018-07-11T12:13:20.708Z,18.90
2018-07-11T12:15:50.375Z,18.90
2018-07-11T12:18:20.545Z,19.30
2018-07-11T12:20:49.098Z,19.70
2018-07-11T12:23:17.801Z,20.20
2018-07-11T12:26:24.477Z,20.40
2018-07-11T12:28:53.419Z,20.80
2018-07-11T12:31:22.678Z,20.90
2018-07-11T12:33:52.031Z,21.00
2018-07-11T12:36:21.484Z,20.90
2018-07-11T12:38:54.124Z,21.10
2018-07-11T12:41:24.150Z,21.30
2018-07-11T12:43:52.997Z,21.30
2018-07-11T12:46:22.253Z,21.80
2018-07-11T12:48:56.287Z,22.00
2018-07-11T12:51:25.361Z,21.90
2018-07-11T12:53:53.907Z,21.60
2018-07-11T12:56:22.689Z,21.30
2018-07-11T12:58:51.734Z,21.30
2018-07-11T13:01:20.840Z,21.60
2018-07-11T13:03:50.089Z,21.40
2018-07-11T13:06:18.751Z,21.40
2018-07-11T13:08:47.781Z,21.10
2018-07-11T13:11:16.289Z,20.90
2018-07-11T13:13:44.970Z,20.60
2018-07-11T13:16:16.595Z,20.30
2018-07-11T13:18:45.436Z,20.40
2018-07-11T13:21:14.039Z,20.60
2018-07-11T13:23:42.657Z,20.90
2018-07-11T13:26:11.471Z,21.10
2018-07-11T13:28:40.451Z,21.50
2018-07-11T13:31:09.161Z,21.90
2018-07-11T13:33:38.199Z,22.00
2018-07-11T13:36:06.908Z,22.00
2018-07-11T13:38:35.998Z,21.80
2018-07-11T13:43:32.916Z,21.70
2018-07-11T13:46:01.476Z,21.70
2018-07-11T13:48:31.682Z,21.80
2018-07-11T13:51:00.180Z,21.80
2018-07-11T13:53:28.799Z,21.60
2018-07-11T13:55:57.597Z,21.50
2018-07-11T13:58:26.119Z,21.20
2018-07-11T14:00:55.031Z,21.00
2018-07-11T14:03:23.694Z,20.50
2018-07-11T14:05:52.229Z,20.30
2018-07-11T14:08:21.004Z,20.10
2018-07-11T14:10:52.719Z,19.90
2018-07-11T14:13:21.487Z,19.90
2018-07-11T14:15:50.908Z,19.80
2018-07-11T14:18:19.468Z,19.80
2018-07-11T14:20:48.475Z,20.00
2018-07-11T14:23:27.211Z,20.00
2018-07-11T14:25:56.300Z,20.00
2018-07-11T14:28:24.834Z,20.20
2018-07-11T14:30:53.708Z,20.00
2018-07-11T14:33:24.140Z,19.90
2018-07-11T14:35:53.696Z,19.50
2018-07-11T14:38:22.689Z,19.10
2018-07-11T14:40:51.364Z,18.80
2018-07-11T14:43:20.538Z,18.50
2018-07-11T14:45:49.793Z,18.20
2018-07-11T14:48:18.423Z,18.20
2018-07-11T14:50:47.445Z,18.20
2018-07-11T14:53:16.763Z,18.20
2018-07-11T14:55:45.263Z,18.40
2018-07-11T14:58:13.942Z,18.70
2018-07-11T15:00:42.897Z,19.00
2018-07-11T15:03:11.816Z,19.00
2018-07-11T15:05:41.037Z,19.20
2018-07-11T15:08:09.778Z,19.20
2018-07-11T15:10:38.922Z,19.20
2018-07-11T15:13:07.527Z,19.30
2018-07-11T15:15:37.236Z,19.30
2018-07-11T15:18:05.847Z,19.30
2018-07-11T15:20:34.632Z,19.40
2018-07-11T15:23:03.950Z,19.50
2018-07-11T15:25:32.738Z,19.70
2018-07-11T15:28:02.044Z,19.90
2018-07-11T15:30:30.737Z,20.10
2018-07-11T15:32:59.899Z,20.00
2018-07-11T15:35:28.500Z,20.20
2018-07-11T15:37:57.995Z,20.10
2018-07-11T15:42:54.723Z,20.20
2018-07-11T15:45:23.703Z,20.30
2018-07-11T15:47:52.473Z,20.00
2018-07-11T15:50:20.940Z,20.10
2018-07-11T15:52:50.333Z,20.10
2018-07-11T15:55:18.815Z,20.00
2018-07-11T15:57:53.484Z,19.90
2018-07-11T16:00:30.632Z,19.80
2018-07-11T16:03:03.116Z,19.80
2018-07-11T16:05:32.094Z,19.80
2018-07-11T16:08:04.347Z,19.90
2018-07-11T16:10:47.540Z,19.80
2018-07-11T16:13:16.455Z,19.90
2018-07-11T16:18:14.615Z,19.70
2018-07-11T16:20:43.400Z,19.80
2018-07-11T16:23:12.421Z,19.80
2018-07-11T16:25:42.532Z,19.70
2018-07-11T16:28:11.740Z,19.40
2018-07-11T16:30:40.356Z,19.20
2018-07-11T16:33:09.601Z,19.10
2018-07-11T16:35:38.225Z,19.10
2018-07-11T16:38:06.872Z,19.20
2018-07-11T16:40:37.036Z,19.30
2018-07-11T16:43:06.115Z,19.30
2018-07-11T16:45:34.794Z,19.40
2018-07-11T16:48:03.594Z,19.40
2018-07-11T16:50:32.599Z,19.40
2018-07-11T16:53:01.530Z,19.40
2018-07-11T16:55:32.536Z,19.30
2018-07-11T16:58:01.138Z,19.30
2018-07-11T17:00:32.541Z,19.30
2018-07-11T17:03:05.489Z,19.10
2018-07-11T17:05:42.043Z,18.80
2018-07-11T17:08:14.043Z,18.60
2018-07-11T17:10:43.194Z,18.50
2018-07-11T17:13:23.213Z,18.50
2018-07-11T17:15:53.681Z,18.50
2018-07-11T17:18:29.706Z,18.50
2018-07-11T17:21:01.994Z,18.50
2018-07-11T17:23:35.801Z,18.40
2018-07-11T17:26:05.822Z,18.40
2018-07-11T17:28:34.487Z,18.50
2018-07-11T17:31:03.508Z,18.40
2018-07-11T17:33:32.263Z,18.40
2018-07-11T17:36:00.858Z,18.30
2018-07-11T17:38:31.004Z,18.20
2018-07-11T17:41:02.421Z,18.10
2018-07-11T17:43:35.842Z,18.10
2018-07-11T17:46:04.975Z,18.00
2018-07-11T17:48:44.661Z,18.00
2018-07-11T17:51:26.681Z,17.90
2018-07-11T17:53:57.349Z,17.90
2018-07-11T17:56:36.298Z,17.80
2018-07-11T17:59:05.372Z,17.70
2018-07-11T18:01:42.182Z,17.70
2018-07-11T18:07:53.181Z,17.50
2018-07-11T18:10:32.328Z,17.40
2018-07-11T18:14:13.162Z,17.40
2018-07-11T18:16:50.091Z,17.40
2018-07-11T18:19:30.143Z,17.30
2018-07-11T18:23:06.677Z,17.20
2018-07-11T18:27:48.093Z,17.10
2018-07-11T18:30:43.437Z,17.00
2018-07-11T18:34:24.841Z,16.90
2018-07-11T18:37:07.778Z,16.80
2018-07-11T18:39:48.197Z,16.70
2018-07-11T18:42:44.000Z,16.60
2018-07-11T18:45:49.977Z,16.50
2018-07-11T18:48:30.801Z,16.30
2018-07-11T18:51:15.366Z,16.20
2018-07-11T18:53:52.393Z,16.10
2018-07-11T18:56:43.184Z,16.00
2018-07-11T18:59:23.239Z,16.00
2018-07-11T19:02:03.663Z,15.90
2018-07-11T19:04:45.291Z,15.80
2018-07-11T19:08:24.038Z,15.70
2018-07-11T19:13:06.041Z,15.60
2018-07-11T19:15:43.458Z,15.50
2018-07-11T19:18:44.151Z,15.40
2018-07-11T19:21:17.464Z,15.30
2018-07-11T19:24:06.039Z,15.20
2018-07-11T19:26:54.728Z,15.20
2018-07-11T19:29:37.989Z,15.10
2018-07-11T19:34:55.424Z,15.10
2018-07-11T19:37:36.605Z,15.00
2018-07-11T19:40:15.017Z,14.90
2018-07-11T19:42:55.365Z,14.80
2018-07-11T19:45:32.659Z,14.80
2018-07-11T19:48:27.325Z,14.70
2018-07-11T19:51:07.801Z,14.70
2018-07-11T19:53:50.728Z,14.60
2018-07-11T19:56:26.846Z,14.60
2018-07-11T19:58:56.445Z,14.60
2018-07-11T20:01:24.990Z,14.50
2018-07-11T20:03:53.863Z,14.50
2018-07-11T20:06:22.870Z,14.40
2018-07-11T20:08:52.294Z,14.40
2018-07-11T20:11:21.874Z,14.30
2018-07-11T20:13:51.700Z,14.30
2018-07-11T20:16:20.717Z,14.20
2018-07-11T20:18:50.272Z,14.20
2018-07-11T20:21:19.279Z,14.10
2018-07-11T20:23:48.789Z,14.10
2018-07-11T20:26:18.064Z,14.00
2018-07-11T20:28:46.886Z,13.90
2018-07-11T20:31:16.114Z,13.90
2018-07-11T20:33:44.630Z,13.80
2018-07-11T20:36:13.271Z,13.80
2018-07-11T20:38:43.132Z,13.80
2018-07-11T20:41:11.665Z,13.70
2018-07-11T20:43:40.791Z,13.70
2018-07-11T20:46:10.421Z,13.60
2018-07-11T20:48:40.045Z,13.60
2018-07-11T20:51:10.076Z,13.60
2018-07-11T20:53:38.845Z,13.50
2018-07-11T20:56:07.722Z,13.50
2018-07-11T20:58:47.311Z,13.40
2018-07-11T21:01:27.494Z,13.30
2018-07-11T21:04:15.191Z,13.30
2018-07-11T21:07:22.558Z,13.20
2018-07-11T21:10:06.157Z,13.20
2018-07-11T21:13:17.125Z,13.20
2018-07-11T21:16:09.112Z,13.20
2018-07-11T21:18:49.683Z,13.20
2018-07-11T21:21:19.423Z,13.20
2018-07-11T21:23:48.166Z,13.20
2018-07-11T21:26:17.784Z,13.20
2018-07-11T21:28:46.247Z,13.20
2018-07-11T21:31:15.610Z,13.20
2018-07-11T21:33:44.782Z,13.10
2018-07-11T21:36:13.861Z,13.10
2018-07-11T21:38:44.690Z,13.00
2018-07-11T21:41:14.250Z,13.00
2018-07-11T21:43:44.047Z,12.90
2018-07-11T21:46:12.857Z,12.90
2018-07-11T21:48:41.762Z,12.90
2018-07-11T21:51:10.564Z,12.90
2018-07-11T21:53:39.818Z,12.80
